createdAt,value
2022-12-28T00:00:55.922Z,101593.41
2022-12-28T00:03:22.093Z,101600.22
2022-12-28T00:05:48.255Z,101592.47
2022-12-28T00:08:14.400Z,101588.25
2022-12-28T00:13:30.756Z,101588.34
2022-12-28T00:15:56.913Z,101587.44
2022-12-28T00:18:23.114Z,101584.00
2022-12-28T00:20:49.278Z,101585.75
2022-12-28T00:23:15.445Z,101584.13
2022-12-28T00:25:41.608Z,101567.09
2022-12-28T00:28:07.783Z,101577.50
2022-12-28T00:30:34.010Z,101562.97
2022-12-28T00:33:00.239Z,101565.56
2022-12-28T00:35:26.361Z,101549.25
2022-12-28T00:37:52.492Z,101548.41
2022-12-28T00:40:23.801Z,101548.38
2022-12-28T00:42:50.478Z,101545.81
2022-12-28T00:45:16.704Z,101534.63
2022-12-28T00:47:42.850Z,101523.50
2022-12-28T00:50:09.022Z,101517.47
2022-12-28T00:52:35.172Z,101520.94
2022-12-28T00:55:01.312Z,101519.22
2022-12-28T00:57:27.481Z,101514.94
2022-12-28T00:59:53.677Z,101516.66
2022-12-28T01:02:19.857Z,101513.22
2022-12-28T01:04:46.061Z,101503.78
2022-12-28T01:07:12.182Z,101504.66
2022-12-28T01:09:38.329Z,101492.63
2022-12-28T01:12:04.517Z,101478.91
2022-12-28T01:14:30.706Z,101480.63
2022-12-28T01:16:56.899Z,101472.88
2022-12-28T01:19:23.122Z,101469.44
2022-12-28T01:21:49.295Z,101470.28
2022-12-28T01:24:15.461Z,101463.38
2022-12-28T01:26:41.665Z,101465.97
2022-12-28T01:29:07.790Z,101459.91
2022-12-28T01:31:33.994Z,101441.84
2022-12-28T01:34:00.166Z,101434.97
2022-12-28T01:36:26.302Z,101437.53
2022-12-28T01:38:52.478Z,101435.78
2022-12-28T01:41:18.731Z,101432.31
2022-12-28T01:43:44.881Z,101424.56
2022-12-28T01:46:11.049Z,101422.81
2022-12-28T01:48:37.228Z,101422.84
2022-12-28T01:51:03.414Z,101420.28
2022-12-28T01:53:29.559Z,101413.41
2022-12-28T01:55:55.671Z,101410.00
2022-12-28T01:58:21.880Z,101406.56
2022-12-28T02:00:48.075Z,101400.56
2022-12-28T02:03:14.246Z,101397.09
2022-12-28T02:05:40.513Z,101390.25
2022-12-28T02:08:06.732Z,101379.94
2022-12-28T02:10:43.137Z,101374.72
2022-12-28T02:13:11.591Z,101363.56
2022-12-28T02:15:37.796Z,101361.84
2022-12-28T02:18:03.952Z,101356.66
2022-12-28T02:20:30.102Z,101366.09
2022-12-28T02:22:56.225Z,101377.31
2022-12-28T02:25:22.413Z,101387.59
2022-12-28T02:27:48.825Z,101362.66
2022-12-28T02:30:15.417Z,101355.81
2022-12-28T02:32:41.597Z,101366.97
2022-12-28T02:35:07.769Z,101350.63
2022-12-28T02:37:33.946Z,101354.13
2022-12-28T02:40:00.142Z,101355.81
2022-12-28T02:42:26.313Z,101351.53
2022-12-28T02:44:52.489Z,101351.53
2022-12-28T02:47:18.655Z,101344.66
2022-12-28T02:49:44.868Z,101341.19
2022-12-28T02:52:11.045Z,101339.47
2022-12-28T02:54:37.191Z,101338.66
2022-12-28T02:57:03.352Z,101331.78
2022-12-28T02:59:29.525Z,101330.97
2022-12-28T03:01:55.729Z,101331.81
2022-12-28T03:04:21.947Z,101331.81
2022-12-28T03:06:48.078Z,101330.97
2022-12-28T03:09:14.270Z,101321.50
2022-12-28T03:11:40.434Z,101325.81
2022-12-28T03:14:06.609Z,101318.06
2022-12-28T03:16:32.751Z,101315.47
2022-12-28T03:18:58.942Z,101317.22
2022-12-28T03:21:25.361Z,101310.34
2022-12-28T03:23:51.557Z,101312.09
2022-12-28T03:26:17.716Z,101316.38
2022-12-28T03:28:43.836Z,101306.94
2022-12-28T03:31:10.061Z,101308.69
2022-12-28T03:33:36.278Z,101304.41
2022-12-28T03:36:02.414Z,101300.13
2022-12-28T03:38:28.565Z,101305.25
2022-12-28T03:40:54.720Z,101300.13
2022-12-28T03:43:20.915Z,101294.97
2022-12-28T03:45:47.688Z,101289.81
2022-12-28T03:48:14.016Z,101288.97
2022-12-28T03:50:40.200Z,101292.38
2022-12-28T03:53:06.347Z,101283.81
2022-12-28T03:55:32.484Z,101278.63
2022-12-28T03:57:58.618Z,101269.19
2022-12-28T04:00:24.820Z,101261.44
2022-12-28T04:02:51.102Z,101253.69
2022-12-28T04:05:17.335Z,101254.50
2022-12-28T04:07:43.479Z,101254.47
2022-12-28T04:10:09.656Z,101251.91
2022-12-28T04:12:35.836Z,101246.69
2022-12-28T04:15:02.062Z,101246.72
2022-12-28T04:17:28.224Z,101243.28
2022-12-28T04:19:54.381Z,101242.41
2022-12-28T04:22:20.571Z,101242.41
2022-12-28T04:24:46.736Z,101236.38
2022-12-28T04:27:12.925Z,101232.06
2022-12-28T04:29:39.069Z,101239.78
2022-12-28T04:32:05.256Z,101225.13
2022-12-28T04:34:31.418Z,101237.13
2022-12-28T04:36:57.596Z,101235.41
2022-12-28T04:39:23.764Z,101226.78
2022-12-28T04:41:49.907Z,101226.78
2022-12-28T04:44:16.089Z,101239.69
2022-12-28T04:46:42.416Z,101233.69
2022-12-28T04:49:08.595Z,101226.75
2022-12-28T04:51:34.731Z,101226.75
2022-12-28T04:54:00.925Z,101220.72
2022-12-28T04:56:27.057Z,101221.53
2022-12-28T04:58:53.202Z,101218.06
2022-12-28T05:01:19.443Z,101219.75
2022-12-28T05:03:52.540Z,101212.81
2022-12-28T05:06:21.023Z,101215.38
2022-12-28T05:08:47.145Z,101211.03
2022-12-28T05:11:14.414Z,101215.28
2022-12-28T05:13:40.590Z,101210.97
2022-12-28T05:16:06.794Z,101216.97
2022-12-28T05:18:33.021Z,101219.59
2022-12-28T05:20:59.198Z,101218.66
2022-12-28T05:23:25.339Z,101210.88
2022-12-28T05:25:51.499Z,101206.56
2022-12-28T05:28:17.720Z,101205.69
2022-12-28T05:30:43.860Z,101191.06
2022-12-28T05:33:10.046Z,101190.13
2022-12-28T05:35:36.249Z,101179.78
2022-12-28T05:38:02.454Z,101184.88
2022-12-28T05:40:28.670Z,101175.31
2022-12-28T05:42:54.822Z,101175.22
2022-12-28T05:45:20.986Z,101156.34
2022-12-28T05:47:47.181Z,101182.00
2022-12-28T05:50:13.305Z,101173.44
2022-12-28T05:52:39.505Z,101173.41
2022-12-28T05:55:05.672Z,101168.22
2022-12-28T05:57:31.843Z,101161.34
2022-12-28T05:59:58.043Z,101157.91
2022-12-28T06:02:24.928Z,101157.94
2022-12-28T06:04:51.168Z,101154.56
2022-12-28T06:07:17.365Z,101165.78
2022-12-28T06:09:43.525Z,101161.50
2022-12-28T06:12:09.719Z,101165.78
2022-12-28T06:14:35.893Z,101159.75
2022-12-28T06:17:02.098Z,101158.09
2022-12-28T06:19:28.300Z,101156.41
2022-12-28T06:21:54.501Z,101153.91
2022-12-28T06:24:20.695Z,101154.78
2022-12-28T06:26:46.834Z,101153.06
2022-12-28T06:29:13.042Z,101153.00
2022-12-28T06:31:39.270Z,101153.84
2022-12-28T06:34:05.489Z,101141.81
2022-12-28T06:36:31.631Z,101145.22
2022-12-28T06:38:57.809Z,101140.16
2022-12-28T06:41:23.939Z,101141.97
2022-12-28T06:43:50.105Z,101143.66
2022-12-28T06:46:16.315Z,101151.50
2022-12-28T06:48:42.496Z,101144.69
2022-12-28T06:51:08.685Z,101137.88
2022-12-28T06:53:34.881Z,101138.69
2022-12-28T06:56:01.029Z,101132.69
2022-12-28T06:58:27.138Z,101125.78
2022-12-28T07:00:53.432Z,101123.16
2022-12-28T07:03:19.597Z,101122.25
2022-12-28T07:05:45.741Z,101119.47
2022-12-28T07:08:12.921Z,101121.94
2022-12-28T07:10:39.180Z,101121.97
2022-12-28T07:13:05.377Z,101111.53
2022-12-28T07:15:31.560Z,101113.94
2022-12-28T07:17:57.688Z,101114.63
2022-12-28T07:20:23.837Z,101113.69
2022-12-28T07:22:49.999Z,101110.31
2022-12-28T07:25:16.175Z,101112.97
2022-12-28T07:27:42.344Z,101121.66
2022-12-28T07:30:08.505Z,101118.31
2022-12-28T07:32:34.702Z,101129.59
2022-12-28T07:35:00.825Z,101117.56
2022-12-28T07:37:27.023Z,101115.75
2022-12-28T07:39:53.163Z,101114.03
2022-12-28T07:42:19.301Z,101109.56
2022-12-28T07:44:48.911Z,101103.47
2022-12-28T07:47:15.550Z,101103.44
2022-12-28T07:49:41.703Z,101102.75
2022-12-28T07:52:07.867Z,101103.69
2022-12-28T07:54:34.060Z,101099.44
2022-12-28T07:57:00.233Z,101095.97
2022-12-28T07:59:30.930Z,101089.75
2022-12-28T08:01:57.583Z,101087.03
2022-12-28T08:04:23.818Z,101090.47
2022-12-28T08:06:49.975Z,101089.44
2022-12-28T08:09:16.192Z,101091.13
2022-12-28T08:11:42.409Z,101082.28
2022-12-28T08:14:08.622Z,101085.69
2022-12-28T08:16:34.779Z,101082.09
2022-12-28T08:19:00.894Z,101072.28
2022-12-28T08:21:27.043Z,101070.50
2022-12-28T08:23:53.178Z,101068.69
2022-12-28T08:26:19.372Z,101073.69
2022-12-28T08:28:45.589Z,101077.06
2022-12-28T08:31:11.780Z,101066.59
2022-12-28T08:33:38.039Z,101064.72
2022-12-28T08:36:04.190Z,101064.47
2022-12-28T08:38:30.323Z,101067.00
2022-12-28T08:40:57.636Z,101054.03
2022-12-28T08:43:24.023Z,101047.94
2022-12-28T08:45:50.226Z,101054.03
2022-12-28T08:48:16.428Z,101051.25
2022-12-28T08:50:42.874Z,101047.63
2022-12-28T08:53:09.068Z,101052.88
2022-12-28T08:55:35.225Z,101053.66
2022-12-28T08:58:01.460Z,101053.66
2022-12-28T09:00:27.633Z,101054.47
2022-12-28T09:02:53.839Z,101056.19
2022-12-28T09:05:20.229Z,101057.06
2022-12-28T09:07:46.350Z,101048.03
2022-12-28T09:10:12.540Z,101055.88
2022-12-28T09:12:38.764Z,101062.03
2022-12-28T09:15:04.988Z,101049.78
2022-12-28T09:17:31.176Z,101049.56
2022-12-28T09:19:57.389Z,101055.50
2022-12-28T09:22:23.555Z,101051.16
2022-12-28T09:24:49.696Z,101054.63
2022-12-28T09:27:15.920Z,101055.84
2022-12-28T09:29:42.130Z,101053.03
2022-12-28T09:32:08.275Z,101057.94
2022-12-28T09:34:36.761Z,101053.31
2022-12-28T09:37:03.875Z,101056.63
2022-12-28T09:39:30.074Z,101058.28
2022-12-28T09:41:56.310Z,101054.56
2022-12-28T09:44:22.537Z,101050.09
2022-12-28T09:46:49.075Z,101049.16
2022-12-28T09:49:15.425Z,101034.78
2022-12-28T09:51:41.599Z,101032.25
2022-12-28T09:54:07.775Z,101039.22
2022-12-28T09:56:33.915Z,101035.69
2022-12-28T09:59:00.060Z,101032.69
2022-12-28T10:01:26.301Z,101027.88
2022-12-28T10:03:52.571Z,101020.13
2022-12-28T10:06:18.723Z,101026.44
2022-12-28T10:08:44.895Z,101026.50
2022-12-28T10:11:11.097Z,101016.00
2022-12-28T10:13:54.068Z,101006.19
2022-12-28T10:16:21.124Z,101011.03
2022-12-28T10:18:47.320Z,101012.88
2022-12-28T10:21:13.527Z,101005.38
2022-12-28T10:24:04.182Z,101003.38
2022-12-28T10:26:25.887Z,100990.53
2022-12-28T10:28:52.103Z,100985.31
2022-12-28T10:31:18.298Z,100980.69
2022-12-28T10:33:44.539Z,100973.63
2022-12-28T10:36:10.725Z,100980.19
2022-12-28T10:38:36.946Z,100975.16
2022-12-28T10:41:03.160Z,100963.47
2022-12-28T10:43:29.284Z,100962.88
2022-12-28T10:45:55.490Z,100957.91
2022-12-28T10:48:21.638Z,100967.00
2022-12-28T10:50:47.808Z,100961.84
2022-12-28T10:53:13.986Z,100955.16
2022-12-28T10:55:40.169Z,100951.44
2022-12-28T11:00:52.589Z,100932.59
2022-12-28T11:03:18.938Z,100932.44
2022-12-28T11:05:45.236Z,100935.47
2022-12-28T11:08:11.430Z,100919.13
2022-12-28T11:10:37.644Z,100919.06
2022-12-28T11:13:03.833Z,100920.09
2022-12-28T11:15:30.007Z,100915.47
2022-12-28T11:17:56.180Z,100911.91
2022-12-28T11:20:22.364Z,100908.72
2022-12-28T11:22:48.560Z,100905.56
2022-12-28T11:25:14.694Z,100902.78
2022-12-28T11:27:40.867Z,100904.22
2022-12-28T11:30:08.300Z,100904.94
2022-12-28T11:32:37.251Z,100892.59
2022-12-28T11:35:03.467Z,100893.16
2022-12-28T11:37:29.677Z,100880.41
2022-12-28T11:39:55.876Z,100882.66
2022-12-28T11:42:39.114Z,100872.06
2022-12-28T11:45:06.314Z,100870.00
2022-12-28T11:47:32.488Z,100864.84
2022-12-28T11:49:58.637Z,100865.34
2022-12-28T11:52:24.810Z,100862.16
2022-12-28T11:54:50.976Z,100857.03
2022-12-28T11:57:17.093Z,100852.31
2022-12-28T11:59:43.276Z,100846.19
2022-12-28T12:02:09.623Z,100847.78
2022-12-28T12:04:35.868Z,100850.06
2022-12-28T12:07:02.050Z,100842.31
2022-12-28T12:09:28.230Z,100832.34
2022-12-28T12:11:54.400Z,100827.09
2022-12-28T12:14:20.630Z,100822.13
2022-12-28T12:16:46.794Z,100813.16
2022-12-28T12:19:13.045Z,100807.63
2022-12-28T12:21:39.913Z,100802.47
2022-12-28T12:24:06.050Z,100807.78
2022-12-28T12:26:32.171Z,100788.94
2022-12-28T12:28:58.310Z,100798.72
2022-12-28T12:31:24.555Z,100792.25
2022-12-28T12:33:50.697Z,100788.13
2022-12-28T12:36:16.891Z,100786.75
2022-12-28T12:38:43.060Z,100761.66
2022-12-28T12:41:09.186Z,100777.91
2022-12-28T12:43:35.317Z,100779.72
2022-12-28T12:46:01.536Z,100783.50
2022-12-28T12:48:27.731Z,100783.53
2022-12-28T12:50:53.926Z,100761.59
2022-12-28T12:53:20.118Z,100758.84
2022-12-28T12:55:46.256Z,100756.53
2022-12-28T12:58:12.398Z,100753.19
2022-12-28T13:00:38.567Z,100755.25
2022-12-28T13:03:04.794Z,100751.78
2022-12-28T13:05:30.910Z,100747.38
2022-12-28T13:07:57.135Z,100748.63
2022-12-28T13:10:23.256Z,100738.34
2022-12-28T13:12:49.432Z,100737.25
2022-12-28T13:15:15.643Z,100740.59
2022-12-28T13:17:41.815Z,100738.19
2022-12-28T13:20:07.942Z,100735.97
2022-12-28T13:22:34.067Z,100733.56
2022-12-28T13:25:00.275Z,100732.56
2022-12-28T13:27:26.427Z,100726.69
2022-12-28T13:29:52.624Z,100728.72
2022-12-28T13:32:18.793Z,100723.34
2022-12-28T13:34:44.964Z,100718.06
2022-12-28T13:37:11.166Z,100713.91
2022-12-28T13:39:42.144Z,100713.53
2022-12-28T13:42:08.820Z,100688.50
2022-12-28T13:44:35.045Z,100705.56
2022-12-28T13:47:01.217Z,100705.00
2022-12-28T13:49:27.344Z,100699.78
2022-12-28T13:51:53.890Z,100696.50
2022-12-28T13:54:20.067Z,100695.84
2022-12-28T13:56:46.251Z,100686.31
2022-12-28T13:59:12.414Z,100692.59
2022-12-28T14:01:38.742Z,100693.69
2022-12-28T14:04:42.410Z,100693.00
2022-12-28T14:06:51.178Z,100687.53
2022-12-28T14:09:17.372Z,100684.41
2022-12-28T14:11:43.515Z,100686.84
2022-12-28T14:14:09.745Z,100679.03
2022-12-28T14:16:35.939Z,100672.75
2022-12-28T14:19:02.132Z,100668.63
2022-12-28T14:21:28.283Z,100665.88
2022-12-28T14:23:54.423Z,100661.59
2022-12-28T14:26:20.772Z,100662.53
2022-12-28T14:28:46.979Z,100661.47
2022-12-28T14:31:13.316Z,100648.66
2022-12-28T14:33:39.548Z,100652.09
2022-12-28T14:36:05.703Z,100655.44
2022-12-28T14:38:33.263Z,100640.75
2022-12-28T14:40:59.638Z,100640.75
2022-12-28T14:43:25.821Z,100630.41
2022-12-28T14:48:38.212Z,100616.66
2022-12-28T14:51:04.434Z,100624.22
2022-12-28T14:53:31.248Z,100623.69
2022-12-28T14:55:57.522Z,100622.66
2022-12-28T14:58:23.694Z,100625.53
2022-12-28T15:00:25.735Z,100627.09
2022-12-28T15:00:50.069Z,100611.66
2022-12-28T15:03:16.226Z,100614.47
2022-12-28T15:05:43.960Z,100606.09
2022-12-28T15:08:10.140Z,100608.97
2022-12-28T15:10:36.298Z,100613.47
2022-12-28T15:13:02.441Z,100612.97
2022-12-28T15:15:28.620Z,100612.88
2022-12-28T15:17:54.850Z,100616.47
2022-12-28T15:20:20.992Z,100615.34
2022-12-28T15:22:47.156Z,100615.84
2022-12-28T15:25:13.334Z,100598.47
2022-12-28T15:27:39.491Z,100595.94
2022-12-28T15:30:07.087Z,100600.06
2022-12-28T15:32:34.568Z,100587.63
2022-12-28T15:35:00.832Z,100592.78
2022-12-28T15:37:27.057Z,100585.38
2022-12-28T15:39:53.210Z,100589.78
2022-12-28T15:42:19.410Z,100587.44
2022-12-28T15:44:45.552Z,100587.38
2022-12-28T15:47:11.759Z,100579.16
2022-12-28T15:49:37.994Z,100576.03
2022-12-28T15:52:04.177Z,100575.50
2022-12-28T15:54:30.357Z,100586.41
2022-12-28T15:56:56.556Z,100575.75
2022-12-28T15:59:22.765Z,100576.16
2022-12-28T16:01:49.169Z,100579.44
2022-12-28T16:04:15.430Z,100569.59
2022-12-28T16:06:44.619Z,100567.19
2022-12-28T16:09:11.299Z,100567.44
2022-12-28T16:11:37.472Z,100565.09
2022-12-28T16:14:03.646Z,100556.56
2022-12-28T16:16:29.911Z,100549.84
2022-12-28T16:18:56.182Z,100554.06
2022-12-28T16:21:22.378Z,100554.06
2022-12-28T16:23:48.667Z,100553.63
2022-12-28T16:26:14.851Z,100556.78
2022-12-28T16:28:41.089Z,100556.13
2022-12-28T16:31:07.502Z,100554.19
2022-12-28T16:33:33.698Z,100557.72
2022-12-28T16:36:00.163Z,100556.13
2022-12-28T16:38:26.470Z,100561.25
2022-12-28T16:40:52.747Z,100553.81
2022-12-28T16:43:18.955Z,100554.50
2022-12-28T16:45:45.215Z,100559.06
2022-12-28T16:48:11.476Z,100554.19
2022-12-28T16:50:37.598Z,100551.81
2022-12-28T16:53:03.808Z,100545.84
2022-12-28T16:55:30.037Z,100549.28
2022-12-28T16:57:56.239Z,100551.28
2022-12-28T17:00:22.454Z,100553.22
2022-12-28T17:02:48.735Z,100547.59
2022-12-28T17:05:15.076Z,100548.63
2022-12-28T17:07:41.229Z,100555.88
2022-12-28T17:10:07.411Z,100549.09
2022-12-28T17:12:33.658Z,100542.53
2022-12-28T17:15:04.780Z,100547.06
2022-12-28T17:17:31.644Z,100547.97
2022-12-28T17:19:57.786Z,100545.22
2022-12-28T17:22:23.977Z,100533.56
2022-12-28T17:24:50.240Z,100536.31
2022-12-28T17:27:19.285Z,100531.06
2022-12-28T17:29:48.671Z,100520.06
2022-12-28T17:32:14.884Z,100518.56
2022-12-28T17:34:41.077Z,100508.25
2022-12-28T17:37:07.442Z,100519.03
2022-12-28T17:39:39.643Z,100514.94
2022-12-28T17:42:06.624Z,100496.25
2022-12-28T17:44:32.861Z,100509.38
2022-12-28T17:46:59.036Z,100502.66
2022-12-28T17:49:25.198Z,100508.00
2022-12-28T17:51:51.441Z,100499.31
2022-12-28T17:54:17.683Z,100489.88
2022-12-28T17:56:43.872Z,100481.50
2022-12-28T17:59:13.305Z,100481.78
2022-12-28T18:01:39.710Z,100476.59
2022-12-28T18:04:05.935Z,100480.13
2022-12-28T18:06:32.140Z,100473.34
2022-12-28T18:08:58.292Z,100470.00
2022-12-28T18:11:24.434Z,100460.47
2022-12-28T18:13:54.312Z,100456.06
2022-12-28T18:16:20.601Z,100441.25
2022-12-28T18:18:46.892Z,100441.31
2022-12-28T18:21:17.897Z,100428.44
2022-12-28T18:23:47.227Z,100431.97
2022-12-28T18:26:13.426Z,100426.53
2022-12-28T18:28:39.616Z,100412.75
2022-12-28T18:31:05.813Z,100399.50
2022-12-28T18:33:32.044Z,100400.84
2022-12-28T18:35:58.243Z,100394.56
2022-12-28T18:38:24.434Z,100399.09
2022-12-28T18:40:52.821Z,100391.59
2022-12-28T18:43:18.980Z,100392.66
2022-12-28T18:45:45.173Z,100388.38
2022-12-28T18:48:13.033Z,100377.16
2022-12-28T18:50:39.224Z,100383.94
2022-12-28T18:53:05.501Z,100383.81
2022-12-28T18:55:31.699Z,100384.56
2022-12-28T18:57:57.941Z,100391.31
2022-12-28T19:00:24.086Z,100388.78
2022-12-28T19:02:50.650Z,100388.84
2022-12-28T19:05:16.979Z,100385.72
2022-12-28T19:07:49.130Z,100379.84
2022-12-28T19:10:15.769Z,100374.78
2022-12-28T19:12:41.969Z,100368.50
2022-12-28T19:15:08.115Z,100368.84
2022-12-28T19:17:34.295Z,100371.66
2022-12-28T19:20:00.512Z,100370.66
2022-12-28T19:22:26.783Z,100368.53
2022-12-28T19:24:53.049Z,100372.16
2022-12-28T19:27:19.198Z,100358.59
2022-12-28T19:29:45.372Z,100347.63
2022-12-28T19:32:11.713Z,100364.75
2022-12-28T19:34:38.038Z,100360.41
2022-12-28T19:37:07.688Z,100356.91
2022-12-28T19:39:34.056Z,100359.28
2022-12-28T19:42:07.656Z,100347.91
2022-12-28T19:44:33.884Z,100337.19
2022-12-28T19:47:00.195Z,100338.81
2022-12-28T19:49:26.477Z,100342.47
2022-12-28T19:51:52.673Z,100332.00
2022-12-28T19:54:18.851Z,100347.34
2022-12-28T19:56:45.048Z,100338.69
2022-12-28T19:59:11.252Z,100337.97
2022-12-28T20:01:37.641Z,100343.06
2022-12-28T20:04:10.467Z,100327.88
2022-12-28T20:06:39.003Z,100322.75
2022-12-28T20:09:05.136Z,100316.75
2022-12-28T20:11:31.298Z,100321.50
2022-12-28T20:13:57.489Z,100311.75
2022-12-28T20:16:23.864Z,100310.44
2022-12-28T20:18:50.212Z,100314.91
2022-12-28T20:21:19.678Z,100309.47
2022-12-28T20:23:50.012Z,100305.94
2022-12-28T20:26:16.248Z,100302.94
2022-12-28T20:28:49.858Z,100305.88
2022-12-28T20:31:16.065Z,100303.22
2022-12-28T20:33:42.353Z,100304.44
2022-12-28T20:36:08.504Z,100308.22
2022-12-28T20:38:34.660Z,100300.38
2022-12-28T20:41:00.922Z,100293.38
2022-12-28T20:43:27.075Z,100286.41
2022-12-28T20:45:54.450Z,100294.06
2022-12-28T20:48:20.783Z,100299.31
2022-12-28T20:50:46.956Z,100294.06
2022-12-28T20:53:13.102Z,100288.09
2022-12-28T20:55:39.268Z,100275.25
2022-12-28T20:58:05.451Z,100272.81
2022-12-28T21:00:31.637Z,100272.75
2022-12-28T21:02:57.926Z,100269.31
2022-12-28T21:05:24.061Z,100264.19
2022-12-28T21:07:50.264Z,100269.25
2022-12-28T21:10:16.448Z,100244.06
2022-12-28T21:12:42.586Z,100243.94
2022-12-28T21:15:08.719Z,100260.91
2022-12-28T21:17:35.016Z,100257.53
2022-12-28T21:20:01.141Z,100255.84
2022-12-28T21:22:27.302Z,100248.06
2022-12-28T21:24:53.453Z,100248.91
2022-12-28T21:27:19.646Z,100241.22
2022-12-28T21:29:45.854Z,100248.19
2022-12-28T21:32:12.069Z,100245.47
2022-12-28T21:34:38.266Z,100248.94
2022-12-28T21:37:04.423Z,100245.34
2022-12-28T21:39:30.604Z,100247.75
2022-12-28T21:41:56.759Z,100244.34
2022-12-28T21:44:22.932Z,100239.09
2022-12-28T21:46:49.092Z,100238.25
2022-12-28T21:49:15.308Z,100238.19
2022-12-28T21:51:41.507Z,100239.84
2022-12-28T21:54:07.707Z,100241.63
2022-12-28T21:56:33.904Z,100242.50
2022-12-28T21:59:00.101Z,100248.56
2022-12-28T22:01:26.343Z,100234.72
2022-12-28T22:03:52.582Z,100240.97
2022-12-28T22:06:18.782Z,100240.09
2022-12-28T22:08:44.952Z,100241.81
2022-12-28T22:11:11.190Z,100241.03
2022-12-28T22:13:40.286Z,100244.41
2022-12-28T22:16:06.462Z,100246.19
2022-12-28T22:21:18.869Z,100244.03
2022-12-28T22:23:45.079Z,100244.63
2022-12-28T22:26:11.283Z,100239.94
2022-12-28T22:28:37.423Z,100230.25
2022-12-28T22:31:03.607Z,100226.00
2022-12-28T22:33:29.769Z,100226.66
2022-12-28T22:35:55.954Z,100228.16
2022-12-28T22:38:22.119Z,100227.19
2022-12-28T22:40:48.266Z,100227.84
2022-12-28T22:43:14.440Z,100227.00
2022-12-28T22:45:40.714Z,100226.97
2022-12-28T22:48:06.923Z,100223.13
2022-12-28T22:50:35.783Z,100221.31
2022-12-28T22:53:05.880Z,100216.19
2022-12-28T22:55:32.013Z,100211.31
2022-12-28T22:57:58.212Z,100217.03
2022-12-28T23:00:24.358Z,100216.25
2022-12-28T23:02:50.682Z,100212.38
2022-12-28T23:05:17.009Z,100211.06
2022-12-28T23:07:43.174Z,100212.22
2022-12-28T23:10:09.345Z,100204.84
2022-12-28T23:12:35.535Z,100200.38
2022-12-28T23:15:01.718Z,100210.41
2022-12-28T23:17:27.926Z,100208.16
2022-12-28T23:19:54.064Z,100204.97
2022-12-28T23:22:20.209Z,100199.69
2022-12-28T23:24:46.427Z,100196.81
2022-12-28T23:27:12.585Z,100186.81
2022-12-28T23:29:38.752Z,100189.50
2022-12-28T23:32:04.936Z,100189.66
2022-12-28T23:34:31.064Z,100181.78
2022-12-28T23:36:57.244Z,100178.59
2022-12-28T23:39:23.408Z,100172.00
2022-12-28T23:41:49.606Z,100177.13
2022-12-28T23:44:15.734Z,100176.56
2022-12-28T23:46:41.903Z,100168.53
2022-12-28T23:49:08.135Z,100157.13
2022-12-28T23:51:34.331Z,100163.25
2022-12-28T23:54:00.519Z,100168.28
2022-12-28T23:56:26.695Z,100151.16
2022-12-28T23:58:52.897Z,100115.63
